Cedar Fort, Utah
Current Conditions -  °F | °C
As of 10:50 AM on Friday 24 Oct 2014 (Local Time) from KPVU Reporting Station
Clear Clear  
Wind Chill: 64°   Ceiling: Unl
Heat Index: 64°   Visibility: 15mi
Dew Point: 32°   Wind: 8mph
Humidity: 30%   Direction: 140°SE
Pressure: 30.23"   Gusts: NA
Location:  40.1341°N, 112.043°W
Report Text: KPVU 241650Z 14007KT 15SM SKC 18/00 A3023
Loading
Personal Weather Stations






























Interactive Weather Map
Tropical Storm Tracking
New forecast layout! Learn more

10-Day Weather Forecast

Advertisements
Track Severe Weather on mobile